sensor_id;sensor_type;location;lat;lon;timestamp;temperature;humidity
67131;HTU21D;54051;53.464;49.532;2023-05-07T00:01:59;7.86;67.45
67131;HTU21D;54051;53.464;49.532;2023-05-07T00:04:25;7.81;67.06
67131;HTU21D;54051;53.464;49.532;2023-05-07T00:06:51;7.78;66.27
67131;HTU21D;54051;53.464;49.532;2023-05-07T00:09:16;7.85;65.21
67131;HTU21D;54051;53.464;49.532;2023-05-07T00:11:42;7.84;64.85
67131;HTU21D;54051;53.464;49.532;2023-05-07T00:14:08;7.79;64.77
67131;HTU21D;54051;53.464;49.532;2023-05-07T00:16:34;7.71;64.24
67131;HTU21D;54051;53.464;49.532;2023-05-07T00:19:00;7.63;64.32
67131;HTU21D;54051;53.464;49.532;2023-05-07T00:21:26;7.57;64.51
67131;HTU21D;54051;53.464;49.532;2023-05-07T00:23:54;7.53;64.60
67131;HTU21D;54051;53.464;49.532;2023-05-07T00:26:20;7.50;64.63
67131;HTU21D;54051;53.464;49.532;2023-05-07T00:28:46;7.40;64.84
67131;HTU21D;54051;53.464;49.532;2023-05-07T00:31:12;7.30;65.19
67131;HTU21D;54051;53.464;49.532;2023-05-07T00:33:38;7.18;65.25
67131;HTU21D;54051;53.464;49.532;2023-05-07T00:36:04;7.18;65.52
67131;HTU21D;54051;53.464;49.532;2023-05-07T00:38:30;7.30;64.82
67131;HTU21D;54051;53.464;49.532;2023-05-07T00:40:56;7.28;64.74
67131;HTU21D;54051;53.464;49.532;2023-05-07T00:43:22;7.24;64.92
67131;HTU21D;54051;53.464;49.532;2023-05-07T00:45:47;7.19;64.69
67131;HTU21D;54051;53.464;49.532;2023-05-07T00:48:13;7.16;64.43
67131;HTU21D;54051;53.464;49.532;2023-05-07T00:50:39;7.04;64.04
67131;HTU21D;54051;53.464;49.532;2023-05-07T00:53:06;6.95;63.58
67131;HTU21D;54051;53.464;49.532;2023-05-07T00:55:32;6.95;63.11
67131;HTU21D;54051;53.464;49.532;2023-05-07T00:57:58;6.86;62.53
67131;HTU21D;54051;53.464;49.532;2023-05-07T01:00:24;6.76;62.95
67131;HTU21D;54051;53.464;49.532;2023-05-07T01:02:50;6.73;62.50
67131;HTU21D;54051;53.464;49.532;2023-05-07T01:05:17;6.68;62.37
67131;HTU21D;54051;53.464;49.532;2023-05-07T01:07:43;6.67;62.50
67131;HTU21D;54051;53.464;49.532;2023-05-07T01:10:10;6.69;62.46
67131;HTU21D;54051;53.464;49.532;2023-05-07T01:12:36;6.70;62.55
67131;HTU21D;54051;53.464;49.532;2023-05-07T01:15:03;6.75;62.54
67131;HTU21D;54051;53.464;49.532;2023-05-07T01:17:32;6.71;62.82
67131;HTU21D;54051;53.464;49.532;2023-05-07T01:19:58;6.71;62.85
67131;HTU21D;54051;53.464;49.532;2023-05-07T01:22:42;6.72;63.02
67131;HTU21D;54051;53.464;49.532;2023-05-07T01:25:08;6.65;63.25
67131;HTU21D;54051;53.464;49.532;2023-05-07T01:27:34;6.59;63.33
67131;HTU21D;54051;53.464;49.532;2023-05-07T01:30:02;6.60;63.36
67131;HTU21D;54051;53.464;49.532;2023-05-07T01:35:14;6.59;61.92
67131;HTU21D;54051;53.464;49.532;2023-05-07T01:37:41;6.68;61.33
67131;HTU21D;54051;53.464;49.532;2023-05-07T01:40:07;6.65;60.80
67131;HTU21D;54051;53.464;49.532;2023-05-07T01:42:33;6.66;60.78
67131;HTU21D;54051;53.464;49.532;2023-05-07T01:44:59;6.71;60.55
67131;HTU21D;54051;53.464;49.532;2023-05-07T01:47:25;6.69;60.68
67131;HTU21D;54051;53.464;49.532;2023-05-07T01:49:52;6.68;60.79
67131;HTU21D;54051;53.464;49.532;2023-05-07T01:52:17;6.70;60.55
67131;HTU21D;54051;53.464;49.532;2023-05-07T01:54:43;6.69;60.72
67131;HTU21D;54051;53.464;49.532;2023-05-07T01:57:09;6.75;60.66
67131;HTU21D;54051;53.464;49.532;2023-05-07T01:59:35;6.72;60.89
67131;HTU21D;54051;53.464;49.532;2023-05-07T02:02:01;6.69;61.09
67131;HTU21D;54051;53.464;49.532;2023-05-07T02:04:27;6.72;61.12
67131;HTU21D;54051;53.464;49.532;2023-05-07T02:06:53;6.76;61.02
67131;HTU21D;54051;53.464;49.532;2023-05-07T02:09:18;6.80;61.31
67131;HTU21D;54051;53.464;49.532;2023-05-07T02:11:44;6.84;61.06
67131;HTU21D;54051;53.464;49.532;2023-05-07T02:14:10;6.91;60.85
67131;HTU21D;54051;53.464;49.532;2023-05-07T02:16:36;7.00;60.68
67131;HTU21D;54051;53.464;49.532;2023-05-07T02:19:02;7.11;60.25
67131;HTU21D;54051;53.464;49.532;2023-05-07T02:21:30;7.20;59.94
67131;HTU21D;54051;53.464;49.532;2023-05-07T02:23:56;7.30;59.78
67131;HTU21D;54051;53.464;49.532;2023-05-07T02:26:22;7.65;58.50
67131;HTU21D;54051;53.464;49.532;2023-05-07T02:28:48;9.04;54.39
67131;HTU21D;54051;53.464;49.532;2023-05-07T02:31:13;10.89;48.70
67131;HTU21D;54051;53.464;49.532;2023-05-07T02:33:39;12.77;43.36
67131;HTU21D;54051;53.464;49.532;2023-05-07T02:36:06;14.67;38.59
67131;HTU21D;54051;53.464;49.532;2023-05-07T02:38:32;16.35;34.39
67131;HTU21D;54051;53.464;49.532;2023-05-07T02:40:58;17.37;32.12
67131;HTU21D;54051;53.464;49.532;2023-05-07T02:43:24;18.33;30.19
67131;HTU21D;54051;53.464;49.532;2023-05-07T02:45:59;19.46;28.31
67131;HTU21D;54051;53.464;49.532;2023-05-07T02:48:25;20.37;26.60
67131;HTU21D;54051;53.464;49.532;2023-05-07T02:50:51;20.71;25.63
67131;HTU21D;54051;53.464;49.532;2023-05-07T02:53:17;20.57;25.65
67131;HTU21D;54051;53.464;49.532;2023-05-07T02:55:43;20.93;24.99
67131;HTU21D;54051;53.464;49.532;2023-05-07T02:58:09;21.63;23.94
67131;HTU21D;54051;53.464;49.532;2023-05-07T03:00:35;22.57;22.18
67131;HTU21D;54051;53.464;49.532;2023-05-07T03:03:00;22.44;22.53
67131;HTU21D;54051;53.464;49.532;2023-05-07T03:05:26;22.58;22.21
67131;HTU21D;54051;53.464;49.532;2023-05-07T03:07:52;23.02;21.70
67131;HTU21D;54051;53.464;49.532;2023-05-07T03:10:18;23.23;21.11
67131;HTU21D;54051;53.464;49.532;2023-05-07T03:12:44;23.77;20.40
67131;HTU21D;54051;53.464;49.532;2023-05-07T03:15:10;24.08;19.73
67131;HTU21D;54051;53.464;49.532;2023-05-07T03:17:38;24.66;19.04
67131;HTU21D;54051;53.464;49.532;2023-05-07T03:20:04;24.71;18.67
67131;HTU21D;54051;53.464;49.532;2023-05-07T03:22:30;24.75;18.49
67131;HTU21D;54051;53.464;49.532;2023-05-07T03:24:56;24.91;17.84
67131;HTU21D;54051;53.464;49.532;2023-05-07T03:27:22;25.04;18.33
67131;HTU21D;54051;53.464;49.532;2023-05-07T03:29:47;26.28;16.80
67131;HTU21D;54051;53.464;49.532;2023-05-07T03:32:13;27.08;15.09
67131;HTU21D;54051;53.464;49.532;2023-05-07T03:34:40;26.40;15.89
67131;HTU21D;54051;53.464;49.532;2023-05-07T03:37:05;25.10;17.36
67131;HTU21D;54051;53.464;49.532;2023-05-07T03:39:31;25.28;17.13
67131;HTU21D;54051;53.464;49.532;2023-05-07T03:41:57;25.33;17.28
67131;HTU21D;54051;53.464;49.532;2023-05-07T03:44:23;25.28;17.42
67131;HTU21D;54051;53.464;49.532;2023-05-07T03:46:49;25.05;17.30
67131;HTU21D;54051;53.464;49.532;2023-05-07T03:49:15;24.63;17.71
67131;HTU21D;54051;53.464;49.532;2023-05-07T03:51:41;25.06;17.60
67131;HTU21D;54051;53.464;49.532;2023-05-07T03:54:07;24.48;17.74
67131;HTU21D;54051;53.464;49.532;2023-05-07T03:56:33;24.09;18.88
67131;HTU21D;54051;53.464;49.532;2023-05-07T03:59:00;24.18;18.76
67131;HTU21D;54051;53.464;49.532;2023-05-07T04:01:28;24.29;18.60
67131;HTU21D;54051;53.464;49.532;2023-05-07T04:03:55;24.94;17.66
67131;HTU21D;54051;53.464;49.532;2023-05-07T04:06:21;25.58;16.94
67131;HTU21D;54051;53.464;49.532;2023-05-07T04:08:46;26.10;16.54
67131;HTU21D;54051;53.464;49.532;2023-05-07T04:11:12;27.09;15.90
67131;HTU21D;54051;53.464;49.532;2023-05-07T04:13:38;28.24;14.11
67131;HTU21D;54051;53.464;49.532;2023-05-07T04:16:04;28.93;14.26
67131;HTU21D;54051;53.464;49.532;2023-05-07T04:18:30;29.56;12.91
67131;HTU21D;54051;53.464;49.532;2023-05-07T04:20:56;29.75;12.71
67131;HTU21D;54051;53.464;49.532;2023-05-07T04:23:22;28.73;13.84
67131;HTU21D;54051;53.464;49.532;2023-05-07T04:25:48;28.40;14.10
67131;HTU21D;54051;53.464;49.532;2023-05-07T04:28:14;29.91;12.49
67131;HTU21D;54051;53.464;49.532;2023-05-07T04:30:39;30.64;10.94
67131;HTU21D;54051;53.464;49.532;2023-05-07T04:33:06;30.84;9.84
67131;HTU21D;54051;53.464;49.532;2023-05-07T04:35:32;31.49;8.75
67131;HTU21D;54051;53.464;49.532;2023-05-07T04:37:58;30.48;10.00
67131;HTU21D;54051;53.464;49.532;2023-05-07T04:40:24;30.05;10.13
67131;HTU21D;54051;53.464;49.532;2023-05-07T04:42:50;30.26;10.40
67131;HTU21D;54051;53.464;49.532;2023-05-07T04:45:16;30.96;9.80
67131;HTU21D;54051;53.464;49.532;2023-05-07T04:47:42;32.30;8.95
67131;HTU21D;54051;53.464;49.532;2023-05-07T04:50:08;33.11;7.64
67131;HTU21D;54051;53.464;49.532;2023-05-07T04:52:34;31.14;9.52
67131;HTU21D;54051;53.464;49.532;2023-05-07T04:55:00;30.11;9.83
67131;HTU21D;54051;53.464;49.532;2023-05-07T04:57:26;30.47;11.35
67131;HTU21D;54051;53.464;49.532;2023-05-07T04:59:52;32.01;9.24
67131;HTU21D;54051;53.464;49.532;2023-05-07T05:02:18;31.11;9.28
67131;HTU21D;54051;53.464;49.532;2023-05-07T05:04:44;31.41;9.18
67131;HTU21D;54051;53.464;49.532;2023-05-07T05:07:10;32.08;8.26
67131;HTU21D;54051;53.464;49.532;2023-05-07T05:09:36;31.61;8.93
67131;HTU21D;54051;53.464;49.532;2023-05-07T05:12:01;31.45;8.80
67131;HTU21D;54051;53.464;49.532;2023-05-07T05:14:27;32.82;7.94
67131;HTU21D;54051;53.464;49.532;2023-05-07T05:16:53;33.99;6.67
67131;HTU21D;54051;53.464;49.532;2023-05-07T05:19:19;34.59;7.49
67131;HTU21D;54051;53.464;49.532;2023-05-07T05:21:45;35.75;5.87
67131;HTU21D;54051;53.464;49.532;2023-05-07T05:24:11;32.94;8.17
67131;HTU21D;54051;53.464;49.532;2023-05-07T05:26:37;29.60;8.88
67131;HTU21D;54051;53.464;49.532;2023-05-07T05:29:03;26.78;11.60
67131;HTU21D;54051;53.464;49.532;2023-05-07T05:31:29;24.90;13.49
67131;HTU21D;54051;53.464;49.532;2023-05-07T05:33:55;22.57;17.67
67131;HTU21D;54051;53.464;49.532;2023-05-07T05:36:21;19.38;19.85
67131;HTU21D;54051;53.464;49.532;2023-05-07T05:38:47;20.66;19.60
67131;HTU21D;54051;53.464;49.532;2023-05-07T05:41:13;25.96;13.45
67131;HTU21D;54051;53.464;49.532;2023-05-07T05:43:40;29.88;8.91
67131;HTU21D;54051;53.464;49.532;2023-05-07T05:46:06;31.24;7.31
67131;HTU21D;54051;53.464;49.532;2023-05-07T05:48:32;31.84;7.68
67131;HTU21D;54051;53.464;49.532;2023-05-07T05:50:58;33.00;6.25
67131;HTU21D;54051;53.464;49.532;2023-05-07T05:53:24;33.82;5.59
67131;HTU21D;54051;53.464;49.532;2023-05-07T05:55:50;32.75;5.82
67131;HTU21D;54051;53.464;49.532;2023-05-07T05:58:17;32.12;7.29
67131;HTU21D;54051;53.464;49.532;2023-05-07T06:00:44;27.13;11.84
67131;HTU21D;54051;53.464;49.532;2023-05-07T06:03:10;29.06;9.75
67131;HTU21D;54051;53.464;49.532;2023-05-07T06:05:36;30.92;7.72
67131;HTU21D;54051;53.464;49.532;2023-05-07T06:08:02;30.45;8.31
67131;HTU21D;54051;53.464;49.532;2023-05-07T06:10:28;32.34;7.57
67131;HTU21D;54051;53.464;49.532;2023-05-07T06:12:56;33.04;6.34
67131;HTU21D;54051;53.464;49.532;2023-05-07T06:15:22;34.15;5.68
67131;HTU21D;54051;53.464;49.532;2023-05-07T06:17:48;33.77;5.15
67131;HTU21D;54051;53.464;49.532;2023-05-07T06:20:15;33.79;5.00
67131;HTU21D;54051;53.464;49.532;2023-05-07T06:22:41;33.22;6.60
67131;HTU21D;54051;53.464;49.532;2023-05-07T06:25:07;31.70;6.35
67131;HTU21D;54051;53.464;49.532;2023-05-07T06:27:33;33.15;5.97
67131;HTU21D;54051;53.464;49.532;2023-05-07T06:29:59;33.01;6.68
67131;HTU21D;54051;53.464;49.532;2023-05-07T06:32:25;32.17;8.34
67131;HTU21D;54051;53.464;49.532;2023-05-07T06:34:52;30.78;9.34
67131;HTU21D;54051;53.464;49.532;2023-05-07T06:37:18;30.63;8.95
67131;HTU21D;54051;53.464;49.532;2023-05-07T06:39:44;30.03;8.98
67131;HTU21D;54051;53.464;49.532;2023-05-07T06:42:10;28.92;9.02
67131;HTU21D;54051;53.464;49.532;2023-05-07T06:44:36;30.20;6.85
67131;HTU21D;54051;53.464;49.532;2023-05-07T06:47:02;30.42;8.12
67131;HTU21D;54051;53.464;49.532;2023-05-07T06:49:28;31.12;8.20
67131;HTU21D;54051;53.464;49.532;2023-05-07T06:51:54;32.38;6.76
67131;HTU21D;54051;53.464;49.532;2023-05-07T06:54:21;32.48;6.98
67131;HTU21D;54051;53.464;49.532;2023-05-07T06:56:48;32.75;6.42
67131;HTU21D;54051;53.464;49.532;2023-05-07T06:59:14;32.98;5.50
67131;HTU21D;54051;53.464;49.532;2023-05-07T07:01:40;30.87;7.35
67131;HTU21D;54051;53.464;49.532;2023-05-07T07:04:06;32.83;6.06
67131;HTU21D;54051;53.464;49.532;2023-05-07T07:06:32;33.97;5.06
67131;HTU21D;54051;53.464;49.532;2023-05-07T07:08:59;30.53;7.50
67131;HTU21D;54051;53.464;49.532;2023-05-07T07:11:25;27.19;10.82
67131;HTU21D;54051;53.464;49.532;2023-05-07T07:13:51;23.05;13.44
67131;HTU21D;54051;53.464;49.532;2023-05-07T07:16:20;21.07;16.19
67131;HTU21D;54051;53.464;49.532;2023-05-07T07:18:47;25.04;11.11
67131;HTU21D;54051;53.464;49.532;2023-05-07T07:21:13;28.24;9.08
67131;HTU21D;54051;53.464;49.532;2023-05-07T07:23:39;30.55;5.73
67131;HTU21D;54051;53.464;49.532;2023-05-07T07:26:05;31.50;5.48
67131;HTU21D;54051;53.464;49.532;2023-05-07T07:28:32;33.23;3.73
67131;HTU21D;54051;53.464;49.532;2023-05-07T07:30:58;31.90;5.35
67131;HTU21D;54051;53.464;49.532;2023-05-07T07:33:24;27.82;6.54
67131;HTU21D;54051;53.464;49.532;2023-05-07T07:35:50;27.80;6.43
67131;HTU21D;54051;53.464;49.532;2023-05-07T07:38:16;28.68;6.12
67131;HTU21D;54051;53.464;49.532;2023-05-07T07:40:42;29.48;5.01
67131;HTU21D;54051;53.464;49.532;2023-05-07T07:43:09;28.69;7.03
67131;HTU21D;54051;53.464;49.532;2023-05-07T07:45:35;29.19;7.37
67131;HTU21D;54051;53.464;49.532;2023-05-07T07:48:02;30.50;5.76
67131;HTU21D;54051;53.464;49.532;2023-05-07T07:50:28;30.84;6.00
67131;HTU21D;54051;53.464;49.532;2023-05-07T07:52:54;30.20;5.91
67131;HTU21D;54051;53.464;49.532;2023-05-07T07:55:20;30.10;5.83
67131;HTU21D;54051;53.464;49.532;2023-05-07T07:57:49;30.28;6.41
67131;HTU21D;54051;53.464;49.532;2023-05-07T08:00:15;29.59;6.26
67131;HTU21D;54051;53.464;49.532;2023-05-07T08:02:42;28.60;7.53
67131;HTU21D;54051;53.464;49.532;2023-05-07T08:05:08;27.66;8.96
67131;HTU21D;54051;53.464;49.532;2023-05-07T08:07:34;26.80;7.97
67131;HTU21D;54051;53.464;49.532;2023-05-07T08:10:00;24.00;11.43
67131;HTU21D;54051;53.464;49.532;2023-05-07T08:12:26;22.67;12.75
67131;HTU21D;54051;53.464;49.532;2023-05-07T08:14:52;21.67;13.94
67131;HTU21D;54051;53.464;49.532;2023-05-07T08:17:18;21.34;14.18
67131;HTU21D;54051;53.464;49.532;2023-05-07T08:19:45;20.65;16.25
67131;HTU21D;54051;53.464;49.532;2023-05-07T08:22:11;20.46;17.08
67131;HTU21D;54051;53.464;49.532;2023-05-07T08:24:37;20.64;17.54
67131;HTU21D;54051;53.464;49.532;2023-05-07T08:27:03;20.30;16.56
67131;HTU21D;54051;53.464;49.532;2023-05-07T08:29:29;18.93;16.49
67131;HTU21D;54051;53.464;49.532;2023-05-07T08:31:55;17.44;19.38
67131;HTU21D;54051;53.464;49.532;2023-05-07T08:34:22;16.88;20.25
67131;HTU21D;54051;53.464;49.532;2023-05-07T08:36:48;17.37;20.96
67131;HTU21D;54051;53.464;49.532;2023-05-07T08:39:17;18.07;20.05
67131;HTU21D;54051;53.464;49.532;2023-05-07T08:41:47;18.83;18.89
67131;HTU21D;54051;53.464;49.532;2023-05-07T08:44:14;19.17;17.73
67131;HTU21D;54051;53.464;49.532;2023-05-07T08:46:41;19.32;17.93
67131;HTU21D;54051;53.464;49.532;2023-05-07T08:49:07;18.82;17.57
67131;HTU21D;54051;53.464;49.532;2023-05-07T08:51:33;17.99;19.90
67131;HTU21D;54051;53.464;49.532;2023-05-07T08:54:00;17.78;20.99
67131;HTU21D;54051;53.464;49.532;2023-05-07T08:56:27;18.21;20.54
67131;HTU21D;54051;53.464;49.532;2023-05-07T08:58:53;17.95;21.21
67131;HTU21D;54051;53.464;49.532;2023-05-07T09:01:24;17.61;22.11
67131;HTU21D;54051;53.464;49.532;2023-05-07T09:03:50;17.34;22.87
67131;HTU21D;54051;53.464;49.532;2023-05-07T09:06:17;17.28;20.81
67131;HTU21D;54051;53.464;49.532;2023-05-07T09:08:50;16.59;23.04
67131;HTU21D;54051;53.464;49.532;2023-05-07T09:11:19;16.65;22.53
67131;HTU21D;54051;53.464;49.532;2023-05-07T09:13:46;16.91;21.84
67131;HTU21D;54051;53.464;49.532;2023-05-07T09:16:12;17.44;22.37
67131;HTU21D;54051;53.464;49.532;2023-05-07T09:18:42;17.80;20.82
67131;HTU21D;54051;53.464;49.532;2023-05-07T09:21:11;17.43;19.88
67131;HTU21D;54051;53.464;49.532;2023-05-07T09:23:41;17.15;21.25
67131;HTU21D;54051;53.464;49.532;2023-05-07T09:26:07;16.93;21.50
67131;HTU21D;54051;53.464;49.532;2023-05-07T09:28:40;16.90;22.43
67131;HTU21D;54051;53.464;49.532;2023-05-07T09:31:10;16.03;22.67
67131;HTU21D;54051;53.464;49.532;2023-05-07T09:33:36;16.44;23.47
67131;HTU21D;54051;53.464;49.532;2023-05-07T09:36:03;16.66;22.88
67131;HTU21D;54051;53.464;49.532;2023-05-07T09:38:29;16.76;22.51
67131;HTU21D;54051;53.464;49.532;2023-05-07T09:41:02;17.03;22.69
67131;HTU21D;54051;53.464;49.532;2023-05-07T09:43:31;16.95;20.97
67131;HTU21D;54051;53.464;49.532;2023-05-07T09:45:58;16.90;22.08
67131;HTU21D;54051;53.464;49.532;2023-05-07T09:48:28;16.99;22.21
67131;HTU21D;54051;53.464;49.532;2023-05-07T09:50:55;17.05;22.66
67131;HTU21D;54051;53.464;49.532;2023-05-07T09:53:25;17.17;21.90
67131;HTU21D;54051;53.464;49.532;2023-05-07T09:55:52;16.58;22.56
67131;HTU21D;54051;53.464;49.532;2023-05-07T09:58:18;16.17;22.70
67131;HTU21D;54051;53.464;49.532;2023-05-07T10:00:45;15.60;24.34
67131;HTU21D;54051;53.464;49.532;2023-05-07T10:03:12;15.44;23.89
67131;HTU21D;54051;53.464;49.532;2023-05-07T10:05:39;15.52;23.94
67131;HTU21D;54051;53.464;49.532;2023-05-07T10:08:06;15.77;23.03
67131;HTU21D;54051;53.464;49.532;2023-05-07T10:10:32;15.60;23.15
67131;HTU21D;54051;53.464;49.532;2023-05-07T10:12:59;15.66;24.32
67131;HTU21D;54051;53.464;49.532;2023-05-07T10:15:26;15.93;25.19
67131;HTU21D;54051;53.464;49.532;2023-05-07T10:17:53;16.36;23.63
67131;HTU21D;54051;53.464;49.532;2023-05-07T10:20:20;16.76;23.41
67131;HTU21D;54051;53.464;49.532;2023-05-07T10:22:47;16.65;23.12
67131;HTU21D;54051;53.464;49.532;2023-05-07T10:25:17;16.12;23.96
67131;HTU21D;54051;53.464;49.532;2023-05-07T10:27:45;15.62;23.58
67131;HTU21D;54051;53.464;49.532;2023-05-07T10:35:16;15.22;23.98
67131;HTU21D;54051;53.464;49.532;2023-05-07T10:37:44;15.18;25.04
67131;HTU21D;54051;53.464;49.532;2023-05-07T10:40:10;15.02;24.13
67131;HTU21D;54051;53.464;49.532;2023-05-07T10:42:52;15.28;23.93
67131;HTU21D;54051;53.464;49.532;2023-05-07T10:45:21;15.71;22.53
67131;HTU21D;54051;53.464;49.532;2023-05-07T10:48:12;16.00;23.47
67131;HTU21D;54051;53.464;49.532;2023-05-07T10:50:38;16.50;23.98
67131;HTU21D;54051;53.464;49.532;2023-05-07T10:55:46;16.41;23.07
67131;HTU21D;54051;53.464;49.532;2023-05-07T10:58:22;16.29;22.88
67131;HTU21D;54051;53.464;49.532;2023-05-07T11:00:48;15.52;23.93
67131;HTU21D;54051;53.464;49.532;2023-05-07T11:03:15;15.23;23.64
67131;HTU21D;54051;53.464;49.532;2023-05-07T11:05:41;14.87;23.23
67131;HTU21D;54051;53.464;49.532;2023-05-07T11:08:08;14.26;25.86
67131;HTU21D;54051;53.464;49.532;2023-05-07T11:13:15;14.27;25.40
67131;HTU21D;54051;53.464;49.532;2023-05-07T11:15:43;14.19;25.50
67131;HTU21D;54051;53.464;49.532;2023-05-07T11:18:10;14.64;25.13
67131;HTU21D;54051;53.464;49.532;2023-05-07T11:20:50;14.71;24.48
67131;HTU21D;54051;53.464;49.532;2023-05-07T11:26:04;13.88;25.27
67131;HTU21D;54051;53.464;49.532;2023-05-07T11:28:33;13.43;26.77
67131;HTU21D;54051;53.464;49.532;2023-05-07T11:31:02;13.83;26.12
67131;HTU21D;54051;53.464;49.532;2023-05-07T11:33:28;14.23;25.09
67131;HTU21D;54051;53.464;49.532;2023-05-07T11:35:54;14.69;27.29
67131;HTU21D;54051;53.464;49.532;2023-05-07T11:38:21;15.04;24.82
67131;HTU21D;54051;53.464;49.532;2023-05-07T11:40:51;15.10;23.99
67131;HTU21D;54051;53.464;49.532;2023-05-07T11:43:17;15.21;23.11
67131;HTU21D;54051;53.464;49.532;2023-05-07T11:45:44;15.42;23.54
67131;HTU21D;54051;53.464;49.532;2023-05-07T11:48:10;15.54;23.85
67131;HTU21D;54051;53.464;49.532;2023-05-07T11:53:41;15.19;23.22
67131;HTU21D;54051;53.464;49.532;2023-05-07T11:56:08;14.70;25.09
67131;HTU21D;54051;53.464;49.532;2023-05-07T11:58:34;14.58;24.45
67131;HTU21D;54051;53.464;49.532;2023-05-07T12:01:01;14.64;26.01
67131;HTU21D;54051;53.464;49.532;2023-05-07T12:03:27;14.65;25.06
67131;HTU21D;54051;53.464;49.532;2023-05-07T12:05:53;14.66;24.25
67131;HTU21D;54051;53.464;49.532;2023-05-07T12:08:20;14.39;24.88
67131;HTU21D;54051;53.464;49.532;2023-05-07T12:10:48;14.51;24.69
67131;HTU21D;54051;53.464;49.532;2023-05-07T12:13:24;14.78;24.30
67131;HTU21D;54051;53.464;49.532;2023-05-07T12:15:50;14.80;24.43
67131;HTU21D;54051;53.464;49.532;2023-05-07T12:18:17;14.62;24.72
67131;HTU21D;54051;53.464;49.532;2023-05-07T12:20:43;14.49;24.47
67131;HTU21D;54051;53.464;49.532;2023-05-07T12:23:09;14.49;25.36
67131;HTU21D;54051;53.464;49.532;2023-05-07T12:25:38;14.63;24.98
67131;HTU21D;54051;53.464;49.532;2023-05-07T12:28:05;14.69;24.12
67131;HTU21D;54051;53.464;49.532;2023-05-07T12:30:32;14.54;23.89
67131;HTU21D;54051;53.464;49.532;2023-05-07T12:32:58;14.64;24.65
67131;HTU21D;54051;53.464;49.532;2023-05-07T12:35:28;14.52;24.36
67131;HTU21D;54051;53.464;49.532;2023-05-07T12:37:55;14.25;23.94
67131;HTU21D;54051;53.464;49.532;2023-05-07T12:40:21;13.89;25.48
67131;HTU21D;54051;53.464;49.532;2023-05-07T12:42:47;13.81;25.64
67131;HTU21D;54051;53.464;49.532;2023-05-07T12:45:18;13.96;26.77
67131;HTU21D;54051;53.464;49.532;2023-05-07T12:47:45;14.11;26.26
67131;HTU21D;54051;53.464;49.532;2023-05-07T12:50:15;14.00;24.72
67131;HTU21D;54051;53.464;49.532;2023-05-07T12:52:42;13.96;25.89
67131;HTU21D;54051;53.464;49.532;2023-05-07T12:55:09;14.17;25.53
67131;HTU21D;54051;53.464;49.532;2023-05-07T12:57:39;14.12;26.52
67131;HTU21D;54051;53.464;49.532;2023-05-07T13:00:06;14.24;24.95
67131;HTU21D;54051;53.464;49.532;2023-05-07T13:02:38;13.92;25.33
67131;HTU21D;54051;53.464;49.532;2023-05-07T13:05:05;13.68;25.36
67131;HTU21D;54051;53.464;49.532;2023-05-07T13:07:31;13.64;25.11
67131;HTU21D;54051;53.464;49.532;2023-05-07T13:09:57;13.73;25.65
67131;HTU21D;54051;53.464;49.532;2023-05-07T13:12:23;13.86;25.22
67131;HTU21D;54051;53.464;49.532;2023-05-07T13:14:49;13.96;26.03
67131;HTU21D;54051;53.464;49.532;2023-05-07T13:17:15;14.14;24.36
67131;HTU21D;54051;53.464;49.532;2023-05-07T13:19:42;13.95;24.63
67131;HTU21D;54051;53.464;49.532;2023-05-07T13:22:08;13.80;25.09
67131;HTU21D;54051;53.464;49.532;2023-05-07T13:24:34;13.75;24.43
67131;HTU21D;54051;53.464;49.532;2023-05-07T13:27:00;13.69;25.53
67131;HTU21D;54051;53.464;49.532;2023-05-07T13:29:26;13.78;24.82
67131;HTU21D;54051;53.464;49.532;2023-05-07T13:31:56;13.69;24.93
67131;HTU21D;54051;53.464;49.532;2023-05-07T13:34:22;13.61;24.88
67131;HTU21D;54051;53.464;49.532;2023-05-07T13:36:48;13.48;24.94
67131;HTU21D;54051;53.464;49.532;2023-05-07T13:39:14;13.27;25.64
67131;HTU21D;54051;53.464;49.532;2023-05-07T13:41:41;13.34;26.30
67131;HTU21D;54051;53.464;49.532;2023-05-07T13:44:07;13.40;25.33
67131;HTU21D;54051;53.464;49.532;2023-05-07T13:46:33;13.24;26.29
67131;HTU21D;54051;53.464;49.532;2023-05-07T13:48:59;12.96;26.36
67131;HTU21D;54051;53.464;49.532;2023-05-07T13:51:25;13.00;26.39
67131;HTU21D;54051;53.464;49.532;2023-05-07T13:53:52;13.17;26.96
67131;HTU21D;54051;53.464;49.532;2023-05-07T13:56:18;13.23;25.78
67131;HTU21D;54051;53.464;49.532;2023-05-07T13:58:44;13.23;25.97
67131;HTU21D;54051;53.464;49.532;2023-05-07T14:01:10;13.46;25.68
67131;HTU21D;54051;53.464;49.532;2023-05-07T14:03:37;13.65;26.41
67131;HTU21D;54051;53.464;49.532;2023-05-07T14:06:05;13.52;25.47
67131;HTU21D;54051;53.464;49.532;2023-05-07T14:08:31;13.36;26.23
67131;HTU21D;54051;53.464;49.532;2023-05-07T14:10:57;13.38;26.05
67131;HTU21D;54051;53.464;49.532;2023-05-07T14:13:23;13.41;26.47
67131;HTU21D;54051;53.464;49.532;2023-05-07T14:15:49;13.31;26.03
67131;HTU21D;54051;53.464;49.532;2023-05-07T14:18:15;13.30;25.92
67131;HTU21D;54051;53.464;49.532;2023-05-07T14:20:41;13.25;26.42
67131;HTU21D;54051;53.464;49.532;2023-05-07T14:23:12;13.02;26.76
67131;HTU21D;54051;53.464;49.532;2023-05-07T14:25:38;12.73;27.67
67131;HTU21D;54051;53.464;49.532;2023-05-07T14:28:04;12.65;27.08
67131;HTU21D;54051;53.464;49.532;2023-05-07T14:30:30;12.67;27.58
67131;HTU21D;54051;53.464;49.532;2023-05-07T14:32:56;12.72;26.75
67131;HTU21D;54051;53.464;49.532;2023-05-07T14:35:22;12.64;27.05
67131;HTU21D;54051;53.464;49.532;2023-05-07T14:37:48;12.69;27.04
67131;HTU21D;54051;53.464;49.532;2023-05-07T14:40:15;12.72;27.39
67131;HTU21D;54051;53.464;49.532;2023-05-07T14:42:41;12.59;27.15
67131;HTU21D;54051;53.464;49.532;2023-05-07T14:45:07;12.41;27.93
67131;HTU21D;54051;53.464;49.532;2023-05-07T14:47:33;12.31;28.65
67131;HTU21D;54051;53.464;49.532;2023-05-07T14:49:59;12.30;27.80
67131;HTU21D;54051;53.464;49.532;2023-05-07T14:52:26;12.22;27.55
67131;HTU21D;54051;53.464;49.532;2023-05-07T14:54:52;12.12;28.63
67131;HTU21D;54051;53.464;49.532;2023-05-07T14:57:18;12.16;28.81
67131;HTU21D;54051;53.464;49.532;2023-05-07T14:59:45;12.25;29.40
67131;HTU21D;54051;53.464;49.532;2023-05-07T15:02:12;12.36;29.40
67131;HTU21D;54051;53.464;49.532;2023-05-07T15:04:39;12.41;27.68
67131;HTU21D;54051;53.464;49.532;2023-05-07T15:07:11;12.19;28.08
67131;HTU21D;54051;53.464;49.532;2023-05-07T15:09:43;12.11;27.62
67131;HTU21D;54051;53.464;49.532;2023-05-07T15:12:09;11.97;27.97
67131;HTU21D;54051;53.464;49.532;2023-05-07T15:14:35;11.92;28.13
67131;HTU21D;54051;53.464;49.532;2023-05-07T15:17:02;11.75;28.74
67131;HTU21D;54051;53.464;49.532;2023-05-07T15:19:28;11.73;28.74
67131;HTU21D;54051;53.464;49.532;2023-05-07T15:21:56;11.66;28.42
67131;HTU21D;54051;53.464;49.532;2023-05-07T15:24:23;11.51;28.77